createdAt,value
2019-05-06T00:00:55.352Z,4.71
2019-05-06T00:04:05.004Z,4.77
2019-05-06T00:07:13.803Z,4.70
2019-05-06T00:10:26.552Z,4.70
2019-05-06T00:13:34.428Z,4.75
2019-05-06T00:16:43.861Z,4.76
2019-05-06T00:19:50.924Z,4.76
2019-05-06T00:23:04.297Z,4.74
2019-05-06T00:26:25.381Z,4.75
2019-05-06T00:29:49.899Z,4.77
2019-05-06T00:33:06.504Z,4.75
2019-05-06T00:36:14.218Z,4.68
2019-05-06T00:39:44.554Z,4.68
2019-05-06T00:43:09.827Z,4.64
2019-05-06T00:46:26.871Z,4.66
2019-05-06T00:49:34.604Z,4.68
2019-05-06T00:52:42.091Z,4.58
2019-05-06T00:55:49.488Z,4.56
2019-05-06T00:58:55.703Z,4.57
2019-05-06T01:02:14.054Z,4.54
2019-05-06T01:05:21.645Z,4.49
2019-05-06T01:08:29.030Z,4.47
2019-05-06T01:11:36.342Z,4.43
2019-05-06T01:14:47.540Z,4.37
2019-05-06T01:18:04.328Z,4.37
2019-05-06T01:21:21.033Z,4.35
2019-05-06T01:24:37.659Z,4.37
2019-05-06T01:28:00.561Z,4.28
2019-05-06T01:31:17.158Z,4.32
2019-05-06T01:34:34.275Z,4.29
2019-05-06T01:37:44.148Z,4.27
2019-05-06T01:41:04.112Z,4.30
2019-05-06T01:44:13.611Z,4.28
2019-05-06T01:47:30.092Z,4.40
2019-05-06T01:50:54.013Z,4.46
2019-05-06T01:54:10.933Z,4.49
2019-05-06T01:57:27.662Z,4.51
2019-05-06T02:00:44.234Z,4.50
2019-05-06T02:03:53.677Z,4.50
2019-05-06T02:07:09.932Z,4.54
2019-05-06T02:10:34.943Z,4.55
2019-05-06T02:13:44.188Z,4.42
2019-05-06T02:16:51.421Z,4.44
2019-05-06T02:19:59.061Z,4.38
2019-05-06T02:23:18.960Z,4.37
2019-05-06T02:26:24.682Z,4.34
2019-05-06T02:29:50.193Z,4.34
2019-05-06T02:33:15.542Z,4.33
2019-05-06T02:36:34.312Z,4.25
2019-05-06T02:39:43.711Z,4.19
2019-05-06T02:42:50.208Z,4.17
2019-05-06T02:46:06.791Z,4.17
2019-05-06T02:49:40.143Z,4.17
2019-05-06T02:52:47.521Z,4.15
2019-05-06T02:55:55.031Z,4.09
2019-05-06T02:59:03.957Z,4.00
2019-05-06T03:02:14.082Z,3.98
2019-05-06T03:05:23.499Z,3.96
2019-05-06T03:08:38.726Z,4.01
2019-05-06T03:11:45.035Z,3.97
2019-05-06T03:14:53.202Z,3.95
2019-05-06T03:18:03.162Z,3.94
2019-05-06T03:21:26.528Z,3.93
2019-05-06T03:24:59.223Z,3.96
2019-05-06T03:28:23.786Z,3.89
2019-05-06T03:31:45.772Z,3.91
2019-05-06T03:35:19.569Z,3.89
2019-05-06T03:38:16.905Z,3.87
2019-05-06T03:41:33.938Z,3.93
2019-05-06T03:44:43.693Z,3.93
2019-05-06T03:47:55.712Z,3.83
2019-05-06T03:51:04.193Z,3.83
2019-05-06T03:54:12.775Z,3.82
2019-05-06T03:57:23.127Z,3.83
2019-05-06T04:00:33.363Z,3.82
2019-05-06T04:03:47.161Z,3.78
2019-05-06T04:06:58.826Z,3.83
2019-05-06T04:10:15.430Z,3.85
2019-05-06T04:13:33.304Z,3.85
2019-05-06T04:16:49.533Z,3.78
2019-05-06T04:20:04.033Z,3.81
2019-05-06T04:23:36.303Z,3.86
2019-05-06T04:26:54.772Z,3.87
2019-05-06T04:30:04.666Z,3.84
2019-05-06T04:33:16.545Z,3.89
2019-05-06T04:36:33.462Z,3.97
2019-05-06T04:39:39.918Z,3.96
2019-05-06T04:42:46.680Z,3.97
2019-05-06T04:45:54.387Z,3.99
2019-05-06T04:49:03.936Z,4.02
2019-05-06T04:52:13.874Z,4.04
2019-05-06T04:55:22.627Z,4.07
2019-05-06T04:58:29.634Z,4.32
2019-05-06T05:01:46.510Z,4.44
2019-05-06T05:04:53.004Z,4.48
2019-05-06T05:08:02.495Z,4.56
2019-05-06T05:11:27.296Z,4.74
2019-05-06T05:14:52.148Z,4.72
2019-05-06T05:18:24.782Z,4.84
2019-05-06T05:21:48.406Z,4.99
2019-05-06T05:24:55.811Z,5.01
2019-05-06T05:28:03.527Z,5.09
2019-05-06T05:31:12.253Z,5.20
2019-05-06T05:34:19.916Z,5.29
2019-05-06T05:37:41.964Z,5.44
2019-05-06T05:40:58.859Z,5.53
2019-05-06T05:44:22.766Z,5.65
2019-05-06T05:47:30.298Z,5.69
2019-05-06T05:50:42.044Z,5.74
2019-05-06T05:53:49.185Z,5.83
2019-05-06T05:56:56.008Z,5.94
2019-05-06T06:00:04.162Z,6.01
2019-05-06T06:03:22.042Z,6.18
2019-05-06T06:06:29.539Z,6.22
2019-05-06T06:09:44.972Z,6.29
2019-05-06T06:12:52.962Z,6.36
2019-05-06T06:16:19.426Z,6.43
2019-05-06T06:19:48.986Z,6.47
2019-05-06T06:22:59.417Z,6.52
2019-05-06T06:26:06.977Z,6.59
2019-05-06T06:29:12.866Z,6.63
2019-05-06T06:32:25.364Z,6.70
2019-05-06T06:35:51.519Z,6.84
2019-05-06T06:39:19.337Z,6.92
2019-05-06T06:42:26.856Z,6.93
2019-05-06T06:45:45.513Z,7.08
2019-05-06T06:49:03.227Z,7.20
2019-05-06T06:52:14.206Z,7.24
2019-05-06T06:55:38.448Z,7.42
2019-05-06T06:59:05.409Z,7.46
2019-05-06T07:02:39.770Z,7.57
2019-05-06T07:05:52.914Z,7.57
2019-05-06T07:09:00.207Z,7.61
2019-05-06T07:12:16.962Z,7.70
2019-05-06T07:15:40.024Z,7.73
2019-05-06T07:18:56.689Z,7.80
2019-05-06T07:22:06.522Z,7.81
2019-05-06T07:30:05.999Z,7.94
2019-05-06T07:33:13.441Z,7.92
2019-05-06T07:36:32.348Z,8.06
2019-05-06T07:39:39.706Z,8.23
2019-05-06T07:42:49.173Z,8.34
2019-05-06T07:45:58.095Z,8.53
2019-05-06T07:49:05.493Z,8.67
2019-05-06T07:52:12.350Z,8.78
2019-05-06T07:55:19.831Z,8.95
2019-05-06T07:58:27.110Z,9.05
2019-05-06T08:01:44.374Z,9.15
2019-05-06T08:04:53.208Z,9.12
2019-05-06T08:08:03.300Z,9.12
2019-05-06T08:11:12.214Z,9.13
2019-05-06T08:14:19.019Z,9.11
2019-05-06T08:17:33.099Z,9.11
2019-05-06T08:20:49.482Z,9.11
2019-05-06T08:23:56.313Z,9.16
2019-05-06T08:27:03.739Z,9.17
2019-05-06T08:30:22.907Z,9.21
2019-05-06T08:33:38.794Z,9.25
2019-05-06T08:37:07.128Z,9.15
2019-05-06T08:40:14.579Z,9.04
2019-05-06T08:43:22.087Z,8.97
2019-05-06T08:46:29.355Z,9.00
2019-05-06T08:49:53.212Z,9.09
2019-05-06T08:53:23.976Z,9.13
2019-05-06T08:56:29.220Z,9.12
2019-05-06T08:59:36.776Z,9.25
2019-05-06T09:02:53.519Z,9.37
2019-05-06T09:06:24.473Z,9.44
2019-05-06T09:09:28.571Z,9.47
2019-05-06T09:12:45.190Z,9.58
2019-05-06T09:16:02.594Z,9.67
2019-05-06T09:19:09.974Z,9.71
2019-05-06T09:22:17.223Z,9.74
2019-05-06T09:25:24.622Z,9.80
2019-05-06T09:28:43.397Z,9.85
2019-05-06T09:31:52.959Z,9.83
2019-05-06T09:35:02.949Z,9.91
2019-05-06T09:38:12.626Z,9.93
2019-05-06T09:41:19.647Z,9.96
2019-05-06T09:44:27.258Z,10.02
2019-05-06T09:47:53.123Z,10.06
2019-05-06T09:51:02.896Z,10.04
2019-05-06T09:54:24.712Z,9.73
2019-05-06T09:57:34.146Z,9.28
2019-05-06T10:00:44.631Z,9.27
2019-05-06T10:03:53.054Z,9.29
2019-05-06T10:07:02.551Z,9.21
2019-05-06T10:10:09.631Z,9.26
2019-05-06T10:13:16.921Z,9.17
2019-05-06T10:16:24.413Z,8.99
2019-05-06T10:19:32.099Z,8.96
2019-05-06T10:22:38.079Z,9.03
2019-05-06T10:25:45.541Z,9.18
2019-05-06T10:29:12.804Z,9.07
2019-05-06T10:32:29.283Z,9.07
2019-05-06T10:35:54.856Z,9.21
2019-05-06T10:39:06.022Z,9.32
2019-05-06T10:42:17.303Z,9.48
2019-05-06T10:45:34.347Z,9.69
2019-05-06T10:48:42.413Z,9.66
2019-05-06T10:51:57.760Z,9.74
2019-05-06T10:55:23.149Z,9.90
2019-05-06T10:58:32.676Z,9.93
2019-05-06T11:01:42.628Z,10.00
2019-05-06T11:04:50.120Z,10.06
2019-05-06T11:07:57.585Z,10.08
2019-05-06T11:11:14.735Z,10.07
2019-05-06T11:14:23.335Z,10.10
2019-05-06T11:17:40.014Z,10.11
2019-05-06T11:20:56.714Z,10.12
2019-05-06T11:24:13.410Z,10.13
2019-05-06T11:27:39.566Z,10.15
2019-05-06T11:31:25.739Z,10.17
2019-05-06T11:34:48.034Z,10.17
2019-05-06T11:38:14.501Z,10.35
2019-05-06T11:41:23.427Z,10.33
2019-05-06T11:44:32.335Z,10.39
2019-05-06T11:47:38.208Z,10.43
2019-05-06T11:50:59.414Z,10.50
2019-05-06T11:54:20.726Z,10.56
2019-05-06T11:57:27.383Z,10.57
2019-05-06T12:00:39.451Z,10.60
2019-05-06T12:03:46.924Z,10.61
2019-05-06T12:07:11.065Z,10.67
2019-05-06T12:10:13.743Z,10.69
2019-05-06T12:13:22.971Z,10.71
2019-05-06T12:16:30.065Z,10.80
2019-05-06T12:19:46.851Z,10.86
2019-05-06T12:23:04.554Z,10.90
2019-05-06T12:26:13.225Z,10.88
2019-05-06T12:29:20.641Z,10.92
2019-05-06T12:32:33.847Z,10.87
2019-05-06T12:35:44.453Z,10.91
2019-05-06T12:39:14.783Z,10.91
2019-05-06T12:42:45.093Z,10.97
2019-05-06T12:45:53.166Z,11.08
2019-05-06T12:49:17.849Z,11.33
2019-05-06T12:52:34.609Z,11.48
2019-05-06T12:55:43.049Z,11.50
2019-05-06T12:58:52.391Z,11.54
2019-05-06T13:01:59.171Z,11.55
2019-05-06T13:05:06.981Z,11.63
2019-05-06T13:08:20.036Z,11.73
2019-05-06T13:11:23.389Z,11.81
2019-05-06T13:14:29.238Z,11.90
2019-05-06T13:17:36.681Z,11.89
2019-05-06T13:20:49.786Z,11.90
2019-05-06T13:23:55.963Z,11.95
2019-05-06T13:27:02.554Z,11.97
2019-05-06T13:30:12.931Z,11.98
2019-05-06T13:33:44.087Z,12.04
2019-05-06T13:37:08.141Z,12.05
2019-05-06T13:40:27.148Z,12.02
2019-05-06T13:43:47.473Z,11.99
2019-05-06T13:46:55.590Z,11.93
2019-05-06T13:50:03.094Z,11.91
2019-05-06T13:53:14.024Z,11.88
2019-05-06T13:56:19.628Z,11.89
2019-05-06T13:59:30.180Z,11.88
2019-05-06T14:02:53.152Z,11.96
2019-05-06T14:06:12.221Z,11.94
2019-05-06T14:09:33.344Z,11.97
2019-05-06T14:12:35.691Z,11.96
2019-05-06T14:15:42.198Z,11.94
2019-05-06T14:18:49.622Z,11.97
2019-05-06T14:21:56.991Z,11.97
2019-05-06T14:25:35.903Z,11.96
2019-05-06T14:28:49.962Z,11.93
2019-05-06T14:32:14.999Z,11.91
2019-05-06T14:35:23.117Z,11.82
2019-05-06T14:38:32.245Z,11.80
2019-05-06T14:41:53.497Z,11.80
2019-05-06T14:45:14.541Z,11.76
2019-05-06T14:48:28.812Z,11.75
2019-05-06T14:51:45.520Z,11.73
2019-05-06T14:55:09.151Z,11.70
2019-05-06T14:58:16.535Z,11.66
2019-05-06T15:01:24.021Z,11.62
2019-05-06T15:04:32.428Z,11.60
2019-05-06T15:07:42.126Z,11.55
2019-05-06T15:10:49.652Z,11.54
2019-05-06T15:14:07.258Z,11.63
2019-05-06T15:17:14.400Z,11.61
2019-05-06T15:20:34.122Z,11.69
2019-05-06T15:23:49.337Z,11.63
2019-05-06T15:26:55.541Z,11.57
2019-05-06T15:30:05.665Z,11.56
2019-05-06T15:33:13.676Z,11.50
2019-05-06T15:36:26.340Z,11.50
2019-05-06T15:39:48.934Z,11.51
2019-05-06T15:43:05.618Z,11.52
2019-05-06T15:46:22.867Z,11.49
2019-05-06T15:49:31.940Z,11.43
2019-05-06T15:52:39.279Z,11.41
2019-05-06T15:55:47.082Z,11.40
2019-05-06T15:59:04.069Z,11.42
2019-05-06T16:02:20.518Z,11.39
2019-05-06T16:05:28.018Z,11.37
2019-05-06T16:08:44.565Z,11.37
2019-05-06T16:12:02.942Z,11.32
2019-05-06T16:15:12.837Z,11.23
2019-05-06T16:18:19.700Z,11.14
2019-05-06T16:21:26.995Z,11.00
2019-05-06T16:24:43.157Z,11.05
2019-05-06T16:28:12.791Z,11.06
2019-05-06T16:31:28.567Z,11.04
2019-05-06T16:34:45.299Z,11.00
2019-05-06T16:37:52.682Z,10.85
2019-05-06T16:41:13.069Z,10.82
2019-05-06T16:44:30.225Z,10.78
2019-05-06T16:47:37.024Z,10.71
2019-05-06T16:50:45.943Z,10.62
2019-05-06T16:53:52.597Z,10.59
2019-05-06T16:57:07.375Z,10.57
2019-05-06T17:00:17.489Z,10.56
2019-05-06T17:03:46.052Z,10.50
2019-05-06T17:06:53.598Z,10.41
2019-05-06T17:10:11.872Z,10.38
2019-05-06T17:13:28.633Z,10.29
2019-05-06T17:16:45.296Z,10.26
2019-05-06T17:20:03.129Z,10.17
2019-05-06T17:23:13.004Z,10.11
2019-05-06T17:26:29.196Z,9.81
2019-05-06T17:30:04.909Z,9.96
2019-05-06T17:33:29.943Z,9.68
2019-05-06T17:36:54.864Z,9.56
2019-05-06T17:40:08.055Z,9.50
2019-05-06T17:43:13.034Z,9.59
2019-05-06T17:46:22.386Z,9.53
2019-05-06T17:49:30.030Z,9.44
2019-05-06T17:52:37.603Z,9.38
2019-05-06T17:55:45.187Z,9.44
2019-05-06T17:59:03.182Z,9.48
2019-05-06T18:02:14.925Z,9.44
2019-05-06T18:05:22.829Z,9.37
2019-05-06T18:08:45.331Z,9.47
2019-05-06T18:12:12.767Z,9.41
2019-05-06T18:15:29.433Z,9.15
2019-05-06T18:18:46.217Z,8.99
2019-05-06T18:22:05.322Z,9.03
2019-05-06T18:25:23.043Z,8.94
2019-05-06T18:28:32.685Z,9.00
2019-05-06T18:31:39.706Z,8.83
2019-05-06T18:34:56.550Z,8.87
2019-05-06T18:38:13.092Z,8.71
2019-05-06T18:41:23.407Z,8.67
2019-05-06T18:44:32.750Z,8.56
2019-05-06T18:47:39.384Z,8.59
2019-05-06T18:50:46.688Z,8.54
2019-05-06T18:54:03.816Z,8.54
2019-05-06T18:57:12.935Z,8.50
2019-05-06T19:00:18.960Z,8.39
2019-05-06T19:03:28.830Z,8.34
2019-05-06T19:06:36.229Z,8.29
2019-05-06T19:09:52.445Z,8.18
2019-05-06T19:13:22.197Z,8.04
2019-05-06T19:16:49.811Z,7.97
2019-05-06T19:19:57.682Z,7.90
2019-05-06T19:23:03.918Z,7.71
2019-05-06T19:26:12.374Z,7.67
2019-05-06T19:29:19.623Z,7.59
2019-05-06T19:32:26.408Z,7.55
2019-05-06T19:35:43.550Z,7.51
2019-05-06T19:38:49.822Z,7.42
2019-05-06T19:41:57.476Z,7.37
2019-05-06T19:45:17.369Z,7.38
2019-05-06T19:48:33.920Z,7.26
2019-05-06T19:51:42.825Z,7.21
2019-05-06T19:54:52.029Z,7.15
2019-05-06T19:57:59.391Z,7.06
2019-05-06T20:01:06.292Z,7.00
2019-05-06T20:04:13.762Z,6.93
2019-05-06T20:07:28.716Z,6.78
2019-05-06T20:11:02.200Z,6.78
2019-05-06T20:14:09.946Z,6.66
2019-05-06T20:17:28.455Z,6.64
2019-05-06T20:20:37.041Z,6.57
2019-05-06T20:23:44.434Z,6.54
2019-05-06T20:27:02.376Z,6.56
2019-05-06T20:30:09.951Z,6.51
2019-05-06T20:33:17.201Z,6.47
2019-05-06T20:36:24.520Z,6.39
2019-05-06T20:39:32.312Z,6.36
2019-05-06T20:42:39.035Z,6.29
2019-05-06T20:45:55.889Z,6.29
2019-05-06T20:49:13.227Z,6.25
2019-05-06T20:52:20.364Z,6.18
2019-05-06T20:55:27.912Z,6.10
2019-05-06T20:58:35.232Z,6.02
2019-05-06T21:01:42.642Z,5.98
2019-05-06T21:04:49.951Z,5.94
2019-05-06T21:08:06.854Z,5.93
2019-05-06T21:11:29.129Z,5.91
2019-05-06T21:14:44.293Z,5.87
2019-05-06T21:18:04.030Z,5.81
2019-05-06T21:21:20.402Z,5.78
2019-05-06T21:24:37.030Z,5.73
2019-05-06T21:27:59.763Z,5.72
2019-05-06T21:31:16.517Z,5.70
2019-05-06T21:34:33.301Z,5.72
2019-05-06T21:37:49.906Z,5.66
2019-05-06T21:41:06.664Z,5.58
2019-05-06T21:44:23.453Z,5.57
2019-05-06T21:47:46.569Z,5.51
2019-05-06T21:50:53.961Z,5.46
2019-05-06T21:54:02.872Z,5.42
2019-05-06T21:57:12.221Z,5.35
2019-05-06T22:00:23.377Z,5.30
2019-05-06T22:03:32.728Z,5.24
2019-05-06T22:06:38.725Z,5.17
2019-05-06T22:09:45.015Z,5.16
2019-05-06T22:12:52.758Z,5.12
2019-05-06T22:16:04.354Z,5.07
2019-05-06T22:19:09.381Z,5.06
2019-05-06T22:22:27.880Z,5.05
2019-05-06T22:25:49.475Z,5.01
2019-05-06T22:29:06.123Z,4.95
2019-05-06T22:32:23.289Z,4.93
2019-05-06T22:35:47.549Z,4.88
2019-05-06T22:39:05.536Z,4.85
2019-05-06T22:42:12.894Z,4.76
2019-05-06T22:45:22.185Z,4.73
2019-05-06T22:48:28.795Z,4.73
2019-05-06T22:51:36.164Z,4.71
2019-05-06T22:54:52.998Z,4.74
2019-05-06T22:58:11.793Z,4.71
2019-05-06T23:01:35.518Z,4.64
2019-05-06T23:04:43.920Z,4.62
2019-05-06T23:07:53.257Z,4.59
2019-05-06T23:11:00.586Z,4.58
2019-05-06T23:14:28.833Z,4.58
2019-05-06T23:17:35.900Z,4.57
2019-05-06T23:20:52.829Z,4.51
2019-05-06T23:24:13.133Z,4.52
2019-05-06T23:27:18.909Z,4.48
2019-05-06T23:30:26.412Z,4.52
2019-05-06T23:33:33.733Z,4.50
2019-05-06T23:37:27.191Z,4.46
2019-05-06T23:41:12.440Z,4.46
2019-05-06T23:45:06.426Z,4.49
2019-05-06T23:48:52.223Z,4.34
2019-05-06T23:52:34.984Z,4.33
2019-05-06T23:56:27.937Z,4.36
2019-05-06T23:59:35.352Z,4.28
